Sochi, Russia
Current Conditions -  °F | °C
As of 12:00 PM on Friday 31 Oct 2014 (Local Time) from URSS Reporting Station
Overcast Overcast  
Wind Chill: 61°   Ceiling: 11000
Heat Index: 61°   Visibility: 6mi
Dew Point: 52°   Wind: 7mph
Humidity: 72%   Direction: 40°NE
Pressure: 29.85"   Gusts: NA
Location:  43.6°N, 39.73°E
Report Text: URSS 310900Z 04003MPS 9999 FEW050CB OVC110 16/11 Q1011 NOSIGRMK R06/07003MPS QFE757 02190060 06190060
Loading
Personal Weather Stations






























Interactive Weather Map
Tropical Storm Tracking
New forecast layout! Learn more

10-Day Weather Forecast

Advertisements
Track Severe Weather on mobile